Time;durP1;ratioP1;P1;durP2;ratioP2;P2;SDS_P1;SDS_P2;PMS_P1;PMS_P2;Temp;Humidity;BMP_temperature;BMP_pressure;BME280_temperature;BME280_humidity;BME280_pressure;Samples;Min_cycle;Max_cycle;Signal;HPM_P1;HPM_P2
2023/09/11 00:02:14;;;;;;;10.40;7.90;;;;;;;14.14;76.91;100229.83;133556;1301;23647;-79
2023/09/11 00:05:17;;;;;;;9.70;7.60;;;;;;;14.12;77.35;100229.32;133554;1304;24360;-80
2023/09/11 00:08:17;;;;;;;10.50;9.20;;;;;;;14.10;77.81;100224.20;133703;1300;22369;-79
2023/09/11 00:11:18;;;;;;;11.30;8.70;;;;;;;14.10;78.19;100222.27;133854;1301;22609;-78
2023/09/11 00:14:19;;;;;;;10.40;7.60;;;;;;;14.08;78.29;100218.13;133855;1300;22991;-80
2023/09/11 00:17:20;;;;;;;;;;;;;;;14.03;77.87;100218.29;133847;1300;22472;-80
2023/09/11 00:20:20;;;;;;;11.00;7.60;;;;;;;13.94;77.65;100211.85;133811;1301;22211;-80
2023/09/11 00:23:21;;;;;;;10.40;7.90;;;;;;;13.90;77.53;100212.86;133822;1301;22409;-78
2023/09/11 00:26:21;;;;;;;9.10;8.10;;;;;;;13.87;77.52;100211.33;133823;1299;22266;-78
2023/09/11 00:29:23;;;;;;;11.80;8.30;;;;;;;13.82;77.53;100212.02;133753;1300;22496;-79
2023/09/11 00:32:23;;;;;;;12.40;10.10;;;;;;;13.75;77.82;100215.74;133858;1298;22455;-81
2023/09/11 00:35:24;;;;;;;14.00;9.40;;;;;;;13.71;78.10;100214.23;133720;1299;23160;-78
2023/09/11 00:38:25;;;;;;;12.10;9.20;;;;;;;13.67;78.00;100213.14;133714;1301;22433;-78
2023/09/11 00:41:25;;;;;;;11.80;10.20;;;;;;;13.64;78.09;100209.20;133898;1300;22237;-82
2023/09/11 00:44:29;;;;;;;14.50;9.90;;;;;;;13.62;78.41;100210.40;133888;1300;22435;-78
2023/09/11 00:47:31;;;;;;;12.00;9.40;;;;;;;13.61;78.98;100208.42;133723;1301;23361;-79
2023/09/11 00:50:32;;;;;;;12.80;9.50;;;;;;;13.60;78.78;100205.55;133795;1301;22843;-79
2023/09/11 00:53:32;;;;;;;14.70;9.90;;;;;;;13.57;78.87;100204.36;133696;1301;22300;-79
2023/09/11 00:56:33;;;;;;;12.80;9.40;;;;;;;13.55;79.01;100206.17;133739;1301;22278;-78
2023/09/11 00:59:34;;;;;;;10.90;7.80;;;;;;;13.53;78.88;100204.45;133851;1292;23579;-79
2023/09/11 01:02:35;;;;;;;;;;;;;;;13.49;78.75;100205.02;133857;1300;22493;-79
2023/09/11 01:05:36;;;;;;;12.10;7.90;;;;;;;13.45;79.16;100206.80;133860;1301;22431;-81
2023/09/11 01:08:36;;;;;;;14.90;8.10;;;;;;;13.44;78.93;100204.09;133825;1301;22437;-79
2023/09/11 01:11:37;;;;;;;9.50;8.10;;;;;;;13.38;78.60;100205.40;133801;1301;22381;-78
2023/09/11 01:14:38;;;;;;;;;;;;;;;13.30;78.77;100204.91;133730;1301;22459;-79
2023/09/11 01:17:39;;;;;;;;;;;;;;;13.26;79.04;100203.24;133701;1301;22444;-78
2023/09/11 01:20:57;;;;;;;8.80;7.90;;;;;;;13.25;79.66;100200.02;133822;1300;22282;-79
2023/09/11 01:24:25;;;;;;;12.10;9.00;;;;;;;13.24;79.46;100201.38;133807;1300;22501;-82
2023/09/11 01:27:44;;;;;;;11.10;7.70;;;;;;;13.22;79.23;100205.70;133789;1301;22406;-78
2023/09/11 01:30:46;;;;;;;11.70;7.00;;;;;;;13.19;79.32;100201.42;133714;1301;22256;-79
2023/09/11 01:33:52;;;;;;;11.80;8.20;;;;;;;13.15;79.16;100204.94;133789;1300;22213;-79
2023/09/11 01:36:53;;;;;;;8.40;7.50;;;;;;;13.11;79.10;100201.44;133810;1295;22456;-80
2023/09/11 01:39:54;;;;;;;8.00;7.20;;;;;;;13.09;78.98;100200.21;133800;1301;22997;-81
2023/09/11 01:42:56;;;;;;;11.70;8.50;;;;;;;13.08;79.02;100197.38;133810;1301;22370;-80
2023/09/11 01:45:59;;;;;;;7.30;6.40;;;;;;;13.07;79.13;100199.77;133834;1301;22464;-78
2023/09/11 01:49:01;;;;;;;8.60;6.50;;;;;;;13.09;79.22;100198.81;133679;1300;22416;-79
2023/09/11 01:52:03;;;;;;;8.40;7.20;;;;;;;13.10;79.08;100198.88;133666;1301;22379;-80
2023/09/11 01:55:05;;;;;;;8.90;7.00;;;;;;;13.06;79.11;100199.52;133846;1301;23331;-79
2023/09/11 01:58:05;;;;;;;12.00;6.90;;;;;;;13.03;79.38;100200.61;133778;1300;22988;-78
2023/09/11 02:01:08;;;;;;;9.10;7.30;;;;;;;13.03;79.18;100200.98;133697;1300;22469;-82
2023/09/11 02:04:11;;;;;;;8.20;7.10;;;;;;;13.01;79.23;100201.00;133822;1300;22944;-79
2023/09/11 02:07:12;;;;;;;9.10;6.80;;;;;;;12.96;79.37;100197.84;133761;1301;22469;-79
2023/09/11 02:10:13;;;;;;;;;;;;;;;12.92;79.32;100198.48;133834;1301;22465;-79
2023/09/11 02:13:14;;;;;;;10.60;6.60;;;;;;;12.87;79.32;100200.19;133814;1301;22398;-79
2023/09/11 02:16:14;;;;;;;12.00;7.20;;;;;;;12.84;79.32;100200.18;133812;1299;22427;-78
2023/09/11 02:19:15;;;;;;;8.30;7.20;;;;;;;12.83;79.18;100198.40;133818;1301;22467;-79
2023/09/11 02:22:16;;;;;;;8.10;7.30;;;;;;;12.77;79.26;100196.38;133688;1301;22368;-78
2023/09/11 02:25:16;;;;;;;;;;;;;;;12.72;79.36;100198.58;133831;1301;22474;-78
2023/09/11 02:28:20;;;;;;;7.50;6.80;;;;;;;12.70;79.29;100199.70;133795;1301;22515;-79
2023/09/11 02:31:20;;;;;;;18.00;8.00;;;;;;;12.67;79.57;100195.56;133700;1301;22485;-79
2023/09/11 02:34:21;;;;;;;13.00;9.30;;;;;;;12.62;80.07;100195.70;133854;1300;22381;-79
2023/09/11 02:37:21;;;;;;;9.80;7.80;;;;;;;12.57;79.89;100194.48;133708;1301;22443;-79
2023/09/11 02:40:22;;;;;;;8.70;7.80;;;;;;;12.52;80.22;100196.04;133828;1304;22298;-78
2023/09/11 02:43:23;;;;;;;9.10;8.20;;;;;;;12.48;80.38;100191.86;133817;1301;22252;-79
2023/09/11 02:46:26;;;;;;;8.00;6.70;;;;;;;12.46;80.13;100194.36;133644;1302;22399;-79
2023/09/11 02:49:29;;;;;;;8.90;6.80;;;;;;;12.40;80.12;100193.39;133740;1292;22466;-78
2023/09/11 02:52:29;;;;;;;8.90;6.40;;;;;;;12.36;80.07;100193.39;133696;1300;22391;-79
2023/09/11 02:55:30;;;;;;;11.90;7.30;;;;;;;12.33;80.13;100193.70;133870;1301;22482;-78
2023/09/11 02:58:31;;;;;;;9.70;8.20;;;;;;;12.28;80.42;100191.08;133695;1301;22349;-78
2023/09/11 03:01:32;;;;;;;11.70;9.00;;;;;;;12.27;80.71;100192.41;133831;1301;22405;-79
2023/09/11 03:04:32;;;;;;;10.70;9.20;;;;;;;12.27;81.16;100193.67;133626;1301;22428;-79
2023/09/11 03:07:33;;;;;;;7.90;6.70;;;;;;;12.27;80.90;100195.80;133775;1300;22395;-80
2023/09/11 03:10:33;;;;;;;;;;;;;;;12.24;80.68;100192.56;133826;1301;23392;-79
2023/09/11 03:13:34;;;;;;;7.30;6.40;;;;;;;12.23;80.46;100189.51;133833;1300;22361;-79
2023/09/11 03:16:35;;;;;;;10.30;7.20;;;;;;;12.19;80.26;100186.91;133681;1301;22326;-79
2023/09/11 03:19:36;;;;;;;8.30;7.20;;;;;;;12.16;80.38;100189.92;133813;1301;22444;-78
2023/09/11 03:22:39;;;;;;;8.80;6.60;;;;;;;12.13;80.56;100189.04;133722;1302;158460;-79
2023/09/11 03:25:45;;;;;;;10.70;7.20;;;;;;;12.08;80.42;100183.74;133712;1301;22396;-80
2023/09/11 03:28:49;;;;;;;8.90;7.30;;;;;;;12.03;80.49;100182.05;133691;1301;22288;-78
2023/09/11 03:31:50;;;;;;;15.00;9.10;;;;;;;11.98;80.41;100180.61;133852;1299;22461;-79
2023/09/11 03:34:53;;;;;;;7.90;7.10;;;;;;;11.97;80.83;100181.45;133827;1301;22680;-79
2023/09/11 03:37:54;;;;;;;7.50;6.70;;;;;;;11.97;80.59;100178.29;133683;1302;22285;-79
2023/09/11 03:40:56;;;;;;;;;;;;;;;11.94;80.42;100175.64;133840;1292;23246;-79
2023/09/11 03:43:57;;;;;;;6.60;5.50;;;;;;;11.95;80.59;100175.47;133695;1301;22369;-79
2023/09/11 03:46:58;;;;;;;;;;;;;;;11.95;80.71;100172.52;133821;1300;23639;-78
2023/09/11 03:49:59;;;;;;;7.90;6.70;;;;;;;11.91;80.81;100171.14;133678;1301;22439;-81
2023/09/11 03:53:01;;;;;;;7.60;6.70;;;;;;;11.89;81.15;100167.83;133686;1299;23240;-81
2023/09/11 03:56:05;;;;;;;10.40;6.80;;;;;;;11.90;81.08;100165.23;133748;1300;22479;-78
2023/09/11 03:59:05;;;;;;;11.50;7.20;;;;;;;11.91;80.96;100166.96;133707;1299;22332;-79
2023/09/11 04:02:06;;;;;;;7.50;6.40;;;;;;;11.88;80.90;100172.11;133798;1301;22334;-81
2023/09/11 04:05:06;;;;;;;10.80;9.00;;;;;;;11.83;80.78;100171.82;133684;1301;22986;-79
2023/09/11 04:08:08;;;;;;;8.70;7.80;;;;;;;11.80;81.49;100170.04;133678;1301;22522;-79
2023/09/11 04:11:09;;;;;;;9.00;7.70;;;;;;;11.83;81.73;100168.85;133819;1299;22215;-79
2023/09/11 04:14:09;;;;;;;8.70;7.30;;;;;;;11.80;81.32;100168.06;133803;1288;22375;-79
2023/09/11 04:17:12;;;;;;;10.40;7.10;;;;;;;11.80;81.33;100166.05;133767;1301;22193;-78
2023/09/11 04:20:15;;;;;;;7.50;6.20;;;;;;;11.80;81.25;100168.80;133754;1300;22242;-79
2023/09/11 04:23:15;;;;;;;8.20;6.30;;;;;;;11.84;81.08;100169.11;133579;1301;22449;-78
2023/09/11 04:26:16;;;;;;;7.80;6.10;;;;;;;11.85;81.10;100167.70;133700;1299;22421;-79
2023/09/11 04:29:20;;;;;;;8.60;5.80;;;;;;;11.84;80.96;100168.36;133606;1301;23156;-78
2023/09/11 04:32:21;;;;;;;5.50;4.90;;;;;;;11.80;80.90;100165.48;133536;1302;22427;-78
2023/09/11 04:35:23;;;;;;;7.50;6.70;;;;;;;11.73;81.07;100162.89;133693;1301;22225;-78
2023/09/11 04:38:24;;;;;;;10.10;7.50;;;;;;;11.74;81.44;100165.09;133629;1300;22375;-79
2023/09/11 04:41:25;;;;;;;8.20;7.20;;;;;;;11.74;81.38;100161.02;133747;1300;23544;-80
2023/09/11 04:44:25;;;;;;;9.00;8.10;;;;;;;11.78;81.61;100162.20;133757;1301;22440;-79
2023/09/11 04:47:30;;;;;;;;;;;;;;;11.86;81.90;100161.23;133689;1300;22469;-79
2023/09/11 04:50:31;;;;;;;10.00;8.00;;;;;;;11.92;81.84;100160.23;133767;1301;22441;-84
2023/09/11 04:53:31;;;;;;;9.50;7.40;;;;;;;11.96;81.82;100163.16;133783;1301;22360;-76
2023/09/11 04:56:32;;;;;;;;;;;;;;;11.97;81.95;100160.45;133834;1300;22463;-83
2023/09/11 04:59:32;;;;;;;7.70;6.90;;;;;;;11.98;81.86;100154.88;133735;1301;22890;-83
2023/09/11 05:02:33;;;;;;;;;;;;;;;12.03;81.88;100156.19;133633;1301;23169;-81
2023/09/11 05:05:40;;;;;;;10.70;8.30;;;;;;;12.05;82.07;100156.73;133772;1300;22484;-82
2023/09/11 05:08:42;;;;;;;11.80;6.90;;;;;;;12.16;82.19;100158.58;133498;1301;23645;-81
2023/09/11 05:11:43;;;;;;;18.60;7.60;;;;;;;12.26;82.21;100161.66;133368;1307;22477;-81
2023/09/11 05:14:44;;;;;;;;;;;;;;;12.41;82.59;100164.41;133296;1301;22953;-80
2023/09/11 05:17:44;;;;;;;14.00;9.10;;;;;;;12.75;83.23;100161.48;133462;1301;22389;-81
2023/09/11 05:20:46;;;;;;;13.00;9.10;;;;;;;13.26;83.35;100159.57;133453;1301;22400;-81
2023/09/11 05:23:47;;;;;;;14.30;8.90;;;;;;;13.76;83.06;100162.23;133264;1301;22438;-77
2023/09/11 05:26:47;;;;;;;9.90;8.70;;;;;;;14.32;82.64;100162.36;133463;1301;22369;-72
2023/09/11 05:29:48;;;;;;;13.80;9.60;;;;;;;14.90;82.55;100161.67;133533;1302;22433;-75
2023/09/11 05:32:52;;;;;;;12.00;10.00;;;;;;;15.49;82.21;100160.77;133487;1301;22369;-75
2023/09/11 05:35:52;;;;;;;10.40;9.10;;;;;;;16.14;81.70;100157.30;133483;1301;22409;-78
2023/09/11 05:38:53;;;;;;;;;;;;;;;16.72;80.71;100157.95;133476;1301;22480;-78
2023/09/11 05:41:53;;;;;;;11.80;8.60;;;;;;;17.15;80.03;100159.27;133484;1302;23109;-76
2023/09/11 05:44:56;;;;;;;;;;;;;;;17.61;79.24;100156.79;133516;1302;22479;-76
2023/09/11 05:47:56;;;;;;;9.90;8.90;;;;;;;18.00;78.53;100152.17;133456;1301;22424;-79
2023/09/11 05:50:57;;;;;;;;;;;;;;;18.48;77.87;100154.00;133498;1302;22449;-77
2023/09/11 05:53:57;;;;;;;12.20;9.70;;;;;;;18.95;77.40;100152.17;133505;1301;22388;-77
2023/09/11 05:57:02;;;;;;;13.20;10.00;;;;;;;19.33;76.63;100148.94;133480;1301;23104;-78
2023/09/11 06:00:09;;;;;;;11.90;10.10;;;;;;;19.76;75.85;100147.06;133517;1298;22341;-77
2023/09/11 06:03:12;;;;;;;12.70;9.80;;;;;;;20.13;75.15;100143.55;133510;1295;23064;-78
2023/09/11 06:06:15;;;;;;;11.90;10.60;;;;;;;20.47;74.31;100142.08;133515;1304;23380;-78
2023/09/11 06:09:16;;;;;;;15.10;11.10;;;;;;;20.85;73.99;100143.84;133761;1298;22384;-77
2023/09/11 06:12:17;;;;;;;12.20;10.60;;;;;;;21.37;73.34;100142.04;133788;1301;22440;-77
2023/09/11 06:15:17;;;;;;;12.20;10.50;;;;;;;21.92;72.80;100138.52;133746;1301;22463;-78
2023/09/11 06:18:18;;;;;;;12.70;11.00;;;;;;;22.39;71.69;100140.15;133764;1302;22398;-79
2023/09/11 06:21:19;;;;;;;12.80;10.90;;;;;;;22.68;70.45;100141.30;133792;1302;22494;-79
2023/09/11 06:24:22;;;;;;;17.20;11.20;;;;;;;22.83;69.46;100139.87;133746;1301;22475;-79
2023/09/11 06:27:25;;;;;;;13.80;11.00;;;;;;;23.03;68.88;100135.80;133791;1302;22326;-79
2023/09/11 06:30:26;;;;;;;11.50;10.40;;;;;;;23.30;68.22;100137.55;133765;1301;22386;-78
2023/09/11 06:33:29;;;;;;;11.50;9.80;;;;;;;23.51;67.35;100138.41;133760;1302;22250;-78
2023/09/11 06:36:30;;;;;;;12.40;10.20;;;;;;;23.79;66.73;100138.05;133778;1302;22338;-78
2023/09/11 06:39:31;;;;;;;12.80;9.60;;;;;;;24.09;66.09;100136.33;133779;1301;23211;-77
2023/09/11 06:42:40;;;;;;;12.70;10.60;;;;;;;24.35;65.30;100137.52;133786;1295;22351;-78
2023/09/11 06:45:41;;;;;;;11.40;10.30;;;;;;;24.55;64.62;100135.80;133737;1302;22287;-77
2023/09/11 06:48:44;;;;;;;14.00;11.00;;;;;;;24.83;63.93;100134.00;133761;1302;22370;-79
2023/09/11 06:51:45;;;;;;;10.80;9.70;;;;;;;25.01;63.00;100133.31;133741;1301;22244;-78
2023/09/11 06:54:50;;;;;;;12.80;10.80;;;;;;;25.19;62.53;100133.27;133779;1301;22484;-78
2023/09/11 06:58:00;;;;;;;11.00;9.70;;;;;;;25.41;62.17;100133.67;133557;1301;23165;-78
2023/09/11 07:01:03;;;;;;;11.00;9.90;;;;;;;25.70;61.54;100129.55;133407;1301;22426;-78
2023/09/11 07:04:06;;;;;;;11.10;10.10;;;;;;;25.95;60.97;100133.23;133506;1302;23228;-79
2023/09/11 07:07:06;;;;;;;11.10;10.00;;;;;;;26.19;60.38;100136.48;133718;1301;22358;-78
2023/09/11 07:10:11;;;;;;;16.60;10.20;;;;;;;26.49;59.72;100135.83;133767;1301;23570;-79
2023/09/11 07:13:14;;;;;;;11.60;10.40;;;;;;;26.59;59.13;100138.56;133704;1301;22431;-79
2023/09/11 07:16:14;;;;;;;13.70;9.00;;;;;;;26.82;58.88;100138.77;133737;1301;22264;-78
2023/09/11 07:19:15;;;;;;;16.70;10.30;;;;;;;27.09;58.17;100139.27;133706;1300;23097;-78
2023/09/11 07:22:16;;;;;;;12.80;9.60;;;;;;;27.20;57.43;100139.91;133769;1301;22383;-78
2023/09/11 07:25:18;;;;;;;14.50;11.20;;;;;;;27.35;56.97;100140.86;133727;1301;22345;-79
2023/09/11 07:28:18;;;;;;;12.50;10.50;;;;;;;27.51;56.29;100140.86;133781;1301;22186;-78
2023/09/11 07:31:19;;;;;;;10.90;9.70;;;;;;;27.60;55.81;100140.92;133744;1301;22465;-78
2023/09/11 07:34:19;;;;;;;14.40;9.80;;;;;;;27.77;55.73;100142.12;133777;1302;22414;-77
2023/09/11 07:37:26;;;;;;;10.90;9.40;;;;;;;27.93;54.96;100144.11;133732;1301;22899;-79
2023/09/11 07:40:27;;;;;;;13.00;10.40;;;;;;;28.18;54.68;100140.63;133765;1301;22209;-79
2023/09/11 07:43:27;;;;;;;14.30;10.80;;;;;;;28.31;54.26;100137.27;133740;1301;22489;-79
2023/09/11 07:46:31;;;;;;;13.10;10.90;;;;;;;28.42;53.69;100136.27;133744;1301;22455;-78
2023/09/11 07:49:34;;;;;;;14.00;9.80;;;;;;;28.40;53.40;100134.33;133730;1301;22408;-79
2023/09/11 07:52:35;;;;;;;11.00;9.50;;;;;;;28.61;53.11;100131.92;133744;1301;22382;-79
2023/09/11 07:55:37;;;;;;;11.80;10.00;;;;;;;28.80;52.67;100129.40;133764;1301;22390;-79
2023/09/11 07:58:38;;;;;;;15.60;9.90;;;;;;;28.94;52.36;100128.94;133683;1301;22476;-79
2023/09/11 08:01:39;;;;;;;21.10;9.90;;;;;;;28.97;52.21;100126.77;133640;1301;22253;-80
2023/09/11 08:04:41;;;;;;;10.40;9.40;;;;;;;29.01;51.93;100124.45;133692;1301;23107;-78
2023/09/11 08:07:41;;;;;;;12.60;9.50;;;;;;;29.24;51.61;100126.30;133546;1301;23130;-78
2023/09/11 08:10:42;;;;;;;9.70;8.40;;;;;;;29.42;51.10;100129.63;133444;1302;22755;-80
2023/09/11 08:13:46;;;;;;;12.10;8.90;;;;;;;29.41;51.00;100126.14;133451;1302;22715;-79
2023/09/11 08:16:46;;;;;;;10.20;8.50;;;;;;;29.48;50.81;100123.44;133488;1301;22482;-79
2023/09/11 08:19:51;;;;;;;9.90;8.70;;;;;;;29.57;50.52;100121.41;133522;1301;22434;-80
2023/09/11 08:22:54;;;;;;;11.20;8.40;;;;;;;29.69;50.26;100126.91;133497;1302;22295;-79
2023/09/11 08:25:59;;;;;;;11.30;8.30;;;;;;;29.79;49.78;100124.91;133487;1301;22484;-80
2023/09/11 08:29:02;;;;;;;11.00;9.30;;;;;;;29.84;49.65;100122.55;133483;1301;22431;-78
2023/09/11 08:32:03;;;;;;;9.90;8.20;;;;;;;29.95;49.71;100122.89;133477;1304;22329;-78
2023/09/11 08:35:04;;;;;;;10.30;8.10;;;;;;;30.16;48.97;100124.23;133496;1302;23221;-79
2023/09/11 08:38:05;;;;;;;10.00;8.00;;;;;;;30.40;48.54;100126.71;133502;1301;23058;-79
2023/09/11 08:41:07;;;;;;;9.70;8.00;;;;;;;30.57;48.12;100124.36;133561;1301;23156;-79
2023/09/11 08:44:07;;;;;;;8.10;7.30;;;;;;;30.75;47.52;100125.91;133397;1302;23440;-79
2023/09/11 08:47:12;;;;;;;10.50;8.80;;;;;;;30.79;47.11;100131.60;133521;1301;23634;-79
2023/09/11 08:50:13;;;;;;;8.60;7.70;;;;;;;30.82;46.83;100128.81;133466;1304;22373;-79
2023/09/11 08:53:22;;;;;;;10.00;8.60;;;;;;;31.03;46.79;100129.41;133525;1301;22453;-80
2023/09/11 08:56:23;;;;;;;10.20;8.40;;;;;;;31.20;46.35;100124.83;133527;1301;22266;-81
2023/09/11 08:59:29;;;;;;;8.30;7.60;;;;;;;31.17;45.83;100127.02;133507;1301;22363;-78
2023/09/11 09:02:32;;;;;;;8.80;7.80;;;;;;;31.23;46.05;100124.70;133426;1301;22368;-78
2023/09/11 09:05:33;;;;;;;49.20;9.70;;;;;;;31.37;45.95;100124.83;133496;1301;22201;-79
2023/09/11 09:08:37;;;;;;;10.20;8.30;;;;;;;31.41;45.62;100121.09;133659;1298;22363;-79
2023/09/11 09:11:48;;;;;;;10.50;8.00;;;;;;;31.39;45.51;100117.28;133775;1302;23153;-78
2023/09/11 09:14:49;;;;;;;11.90;8.00;;;;;;;31.41;45.17;100120.15;133717;1301;22251;-79
2023/09/11 09:17:50;;;;;;;12.40;7.20;;;;;;;31.55;45.08;100120.84;133742;1300;22200;-79
2023/09/11 09:20:51;;;;;;;13.30;7.80;;;;;;;31.71;44.96;100122.15;133619;1301;22971;-78
2023/09/11 09:23:52;;;;;;;10.60;7.80;;;;;;;31.95;44.47;100119.42;133711;1301;22389;-79
2023/09/11 09:27:00;;;;;;;8.00;7.00;;;;;;;32.13;44.15;100121.98;133734;1302;22441;-79
2023/09/11 09:30:18;;;;;;;8.60;7.00;;;;;;;32.19;44.03;100115.10;133674;1301;22753;-79
2023/09/11 09:33:19;;;;;;;9.40;6.50;;;;;;;32.21;43.36;100114.38;133790;1301;22439;-79
2023/09/11 09:36:20;;;;;;;9.80;6.70;;;;;;;32.28;43.08;100110.65;133773;1301;23230;-78
2023/09/11 09:39:28;;;;;;;8.70;6.40;;;;;;;32.29;42.97;100107.27;133769;1301;23152;-78
2023/09/11 09:42:44;;;;;;;7.70;6.80;;;;;;;32.15;42.69;100104.32;133741;1300;22483;-79
2023/09/11 09:45:48;;;;;;;12.00;7.30;;;;;;;32.22;42.76;100096.45;133619;1301;22524;-78
2023/09/11 09:48:49;;;;;;;10.30;6.50;;;;;;;32.41;42.47;100089.68;133754;1301;23227;-78
2023/09/11 09:51:53;;;;;;;15.50;5.60;;;;;;;32.44;41.94;100086.05;133755;1301;22446;-79
2023/09/11 09:55:08;;;;;;;10.10;5.80;;;;;;;32.45;41.86;100082.51;133744;1301;22162;-79
2023/09/11 09:58:12;;;;;;;9.30;6.20;;;;;;;32.42;41.63;100080.98;133726;1299;22365;-78
2023/09/11 10:01:15;;;;;;;7.40;6.20;;;;;;;32.56;41.41;100078.39;133746;1298;22498;-79
2023/09/11 10:04:15;;;;;;;7.50;6.20;;;;;;;32.70;41.07;100071.09;133746;1301;22801;-78
2023/09/11 10:07:44;;;;;;;9.00;5.90;;;;;;;32.77;41.39;100072.79;133760;1301;22239;-78
2023/09/11 10:10:45;;;;;;;7.60;6.20;;;;;;;32.91;40.63;100071.73;133726;1300;22556;-79
2023/09/11 10:13:47;;;;;;;10.30;6.20;;;;;;;32.83;40.36;100067.08;133752;1300;22196;-78
2023/09/11 10:16:48;;;;;;;12.40;5.90;;;;;;;32.86;39.91;100064.17;133700;1300;23306;-79
2023/09/11 10:19:49;;;;;;;7.40;5.40;;;;;;;32.93;39.84;100059.80;133743;1301;22239;-79
2023/09/11 10:22:55;;;;;;;9.10;6.00;;;;;;;32.99;39.01;100058.77;133736;1300;22582;-78
2023/09/11 10:26:02;;;;;;;6.80;5.10;;;;;;;32.89;38.57;100056.80;133666;1301;22452;-79
2023/09/11 10:29:06;;;;;;;6.30;5.40;;;;;;;32.82;38.15;100056.80;133760;1300;22471;-79
2023/09/11 10:32:15;;;;;;;9.40;5.50;;;;;;;32.77;38.17;100049.64;133751;1301;22376;-78
2023/09/11 10:35:17;;;;;;;6.10;5.50;;;;;;;32.75;38.21;100048.55;133769;1301;22406;-78
2023/09/11 10:38:21;;;;;;;8.00;5.60;;;;;;;32.74;38.25;100045.55;133733;1301;22358;-79
2023/09/11 10:41:22;;;;;;;7.40;5.10;;;;;;;32.69;38.43;100040.20;133746;1301;22537;-79
2023/09/11 10:44:35;;;;;;;7.10;5.80;;;;;;;32.81;38.55;100037.44;133777;1295;22360;-78
2023/09/11 10:47:49;;;;;;;11.30;5.40;;;;;;;32.82;37.91;100036.00;133765;1301;23520;-79
2023/09/11 10:50:49;;;;;;;7.80;5.50;;;;;;;32.71;37.68;100034.10;133734;1301;22430;-80
2023/09/11 10:53:50;;;;;;;6.40;5.20;;;;;;;32.75;37.61;100031.53;133749;1300;22563;-78
2023/09/11 10:56:52;;;;;;;6.20;5.20;;;;;;;32.81;37.35;100027.83;133754;1300;22431;-78
2023/09/11 10:59:57;;;;;;;6.70;5.50;;;;;;;32.92;37.17;100023.08;133733;1301;23010;-79
2023/09/11 11:03:01;;;;;;;8.20;5.60;;;;;;;32.96;36.67;100023.73;133759;1301;22388;-78
2023/09/11 11:06:02;;;;;;;8.40;5.00;;;;;;;32.76;36.65;100021.23;133725;1300;23125;-79
2023/09/11 11:09:22;;;;;;;12.60;5.50;;;;;;;32.76;36.97;100018.86;133652;1301;22534;-78
2023/09/11 11:12:34;;;;;;;5.80;5.20;;;;;;;32.75;37.08;100015.91;133706;1299;22483;-78
2023/09/11 11:15:35;;;;;;;5.70;5.20;;;;;;;32.88;36.23;100012.30;133809;1301;22435;-78
2023/09/11 11:18:36;;;;;;;6.30;5.60;;;;;;;32.91;35.68;100013.98;133703;1300;22399;-79
2023/09/11 11:21:40;;;;;;;7.90;5.30;;;;;;;32.98;35.65;100011.48;133717;1301;22413;-79
2023/09/11 11:24:55;;;;;;;6.50;5.00;;;;;;;32.93;35.59;100012.59;133663;1301;22413;-79
2023/09/11 11:28:06;;;;;;;17.90;6.20;;;;;;;32.90;35.40;100010.92;133746;1301;22408;-79
2023/09/11 11:31:08;;;;;;;9.70;6.90;;;;;;;32.94;35.23;100007.02;133648;1301;22495;-79
2023/09/11 11:34:10;;;;;;;9.00;5.30;;;;;;;32.75;35.16;100005.03;133754;1301;22333;-79
2023/09/11 11:37:11;;;;;;;5.10;4.60;;;;;;;32.59;35.33;100007.20;133779;1301;22434;-79
2023/09/11 11:40:13;;;;;;;6.00;5.00;;;;;;;32.40;35.92;100009.83;133727;1300;22546;-79
2023/09/11 11:43:17;;;;;;;6.00;5.20;;;;;;;32.49;36.12;100005.76;133751;1300;22414;-79
2023/09/11 11:46:28;;;;;;;5.90;5.10;;;;;;;32.60;35.44;100006.30;133799;1300;22378;-78
2023/09/11 11:49:28;;;;;;;7.60;4.80;;;;;;;32.65;35.13;100005.33;133829;1298;22351;-78
2023/09/11 11:52:31;;;;;;;8.70;5.60;;;;;;;32.62;34.88;100002.55;133751;1300;22429;-79
2023/09/11 11:55:34;;;;;;;9.70;5.10;;;;;;;32.63;34.47;99998.63;133674;1301;22535;-79
2023/09/11 11:58:35;;;;;;;7.00;5.50;;;;;;;32.35;33.87;100000.17;133754;1301;22369;-79
2023/09/11 12:01:45;;;;;;;6.60;5.30;;;;;;;32.22;34.79;99997.45;133804;1301;22916;-78
2023/09/11 12:04:55;;;;;;;7.50;5.80;;;;;;;32.13;34.64;99997.95;133763;1301;22492;-79
2023/09/11 12:08:01;;;;;;;6.60;5.20;;;;;;;31.97;35.11;100000.31;133832;1300;23557;-79
2023/09/11 12:11:01;;;;;;;8.80;5.60;;;;;;;32.00;35.48;100001.17;133754;1300;22521;-79
2023/09/11 12:14:06;;;;;;;8.30;5.10;;;;;;;32.11;35.79;100003.30;133673;1301;22455;-79
2023/09/11 12:17:11;;;;;;;8.20;5.80;;;;;;;32.10;35.25;100001.42;133815;1298;22524;-79
2023/09/11 12:20:14;;;;;;;6.30;5.70;;;;;;;32.14;35.38;100000.68;133743;1288;22374;-79
2023/09/11 12:23:18;;;;;;;7.20;5.20;;;;;;;32.22;35.03;99997.98;133816;1300;22274;-80
2023/09/11 12:26:22;;;;;;;23.10;6.10;;;;;;;32.20;34.62;99995.23;133722;1300;22985;-79
2023/09/11 12:29:24;;;;;;;7.90;5.90;;;;;;;32.08;34.89;99996.70;133762;1301;22454;-78
2023/09/11 12:32:24;;;;;;;18.00;6.60;;;;;;;32.04;35.01;99997.77;133750;1301;22374;-79
2023/09/11 12:35:31;;;;;;;6.10;5.30;;;;;;;31.91;34.82;99996.89;133755;1301;22149;-79
2023/09/11 12:38:32;;;;;;;6.00;5.40;;;;;;;31.92;35.07;99996.16;133758;1301;22238;-78
2023/09/11 12:41:33;;;;;;;8.10;5.30;;;;;;;32.07;34.94;99999.95;133806;1301;22448;-77
2023/09/11 12:44:41;;;;;;;6.40;5.60;;;;;;;32.14;34.80;99995.73;133743;1301;22412;-80
2023/09/11 12:47:42;;;;;;;9.90;5.50;;;;;;;32.10;34.64;99994.01;133807;1301;23110;-80
2023/09/11 12:50:43;;;;;;;7.70;5.40;;;;;;;32.13;34.81;99992.02;133798;1301;22407;-80
2023/09/11 12:53:46;;;;;;;6.90;5.90;;;;;;;32.14;35.14;99986.73;133788;1300;22640;-80
2023/09/11 12:56:47;;;;;;;7.90;6.10;;;;;;;32.13;35.17;99985.75;133672;1301;22460;-80
2023/09/11 12:59:49;;;;;;;7.80;5.60;;;;;;;31.98;35.15;99984.49;133798;1301;23550;-80
2023/09/11 13:02:55;;;;;;;7.20;6.10;;;;;;;31.86;35.42;99981.85;133790;1301;23355;-80
2023/09/11 13:06:03;;;;;;;9.10;5.60;;;;;;;31.89;35.58;99981.96;133775;1300;22417;-79
2023/09/11 13:09:05;;;;;;;6.60;5.40;;;;;;;31.86;35.50;99977.35;133803;1301;22440;-80
2023/09/11 13:12:09;;;;;;;6.20;5.70;;;;;;;31.81;35.55;99974.80;133717;1300;22367;-80
2023/09/11 13:15:10;;;;;;;9.10;5.70;;;;;;;31.72;35.68;99975.73;133806;1301;22493;-80
2023/09/11 13:18:10;;;;;;;10.10;5.80;;;;;;;31.61;35.59;99971.33;133745;1301;22253;-80
2023/09/11 13:21:14;;;;;;;7.90;5.60;;;;;;;31.48;35.71;99971.35;133828;1300;22460;-80
2023/09/11 13:24:15;;;;;;;7.20;6.10;;;;;;;31.45;35.91;99972.20;133794;1300;22397;-80
2023/09/11 13:27:15;;;;;;;8.40;6.40;;;;;;;31.34;36.07;99973.52;133798;1300;23010;-81
2023/09/11 13:30:16;;;;;;;6.30;5.70;;;;;;;31.25;35.82;99968.77;133677;1300;22596;-80
2023/09/11 13:33:24;;;;;;;6.80;6.10;;;;;;;31.25;36.18;99968.71;133781;1301;23113;-80
2023/09/11 13:36:27;;;;;;;6.70;5.50;;;;;;;31.26;36.30;99966.52;133784;1300;23150;-80
2023/09/11 13:39:31;;;;;;;8.70;6.00;;;;;;;31.18;36.17;99965.77;133805;1300;22416;-80
2023/09/11 13:42:32;;;;;;;9.50;6.50;;;;;;;31.11;36.19;99965.80;133817;1301;22482;-80
2023/09/11 13:45:39;;;;;;;11.40;7.00;;;;;;;31.03;36.12;99964.44;133789;1300;23269;-80
2023/09/11 13:48:42;;;;;;;9.40;6.70;;;;;;;30.91;36.50;99964.36;133800;1300;22418;-80
2023/09/11 13:51:44;;;;;;;7.80;5.80;;;;;;;30.78;36.60;99966.36;133680;1301;23571;-80
2023/09/11 13:54:46;;;;;;;11.00;6.50;;;;;;;30.77;36.52;99958.48;133803;1301;22379;-80
2023/09/11 13:57:51;;;;;;;9.50;6.60;;;;;;;30.75;36.84;99954.17;133653;1301;22355;-80
2023/09/11 14:00:52;;;;;;;10.70;6.20;;;;;;;30.72;36.90;99953.66;133824;1301;23533;-80